createdAt,value
2018-11-27T00:00:50.137Z,1.70
2018-11-27T00:03:18.079Z,1.70
2018-11-27T00:05:46.027Z,1.60
2018-11-27T00:08:13.841Z,1.60
2018-11-27T00:10:41.477Z,1.50
2018-11-27T00:13:11.376Z,1.50
2018-11-27T00:15:41.037Z,1.50
2018-11-27T00:18:10.119Z,1.40
2018-11-27T00:20:40.473Z,1.30
2018-11-27T00:23:08.703Z,1.30
2018-11-27T00:25:37.345Z,1.30
2018-11-27T00:28:06.054Z,1.30
2018-11-27T00:30:34.269Z,1.30
2018-11-27T00:33:01.917Z,1.20
2018-11-27T00:35:29.680Z,1.20
2018-11-27T00:37:59.421Z,1.20
2018-11-27T00:40:27.233Z,1.10
2018-11-27T00:42:54.953Z,1.10
2018-11-27T00:45:22.789Z,1.10
2018-11-27T00:47:50.907Z,1.00
2018-11-27T00:50:21.500Z,1.10
2018-11-27T00:52:48.989Z,1.10
2018-11-27T00:55:17.489Z,1.00
2018-11-27T00:57:46.310Z,1.10
2018-11-27T01:00:14.894Z,1.00
2018-11-27T01:02:43.620Z,1.00
2018-11-27T01:05:13.281Z,1.00
2018-11-27T01:07:40.962Z,1.00
2018-11-27T01:10:11.173Z,1.00
2018-11-27T01:12:38.745Z,1.00
2018-11-27T01:15:07.590Z,1.00
2018-11-27T01:17:35.272Z,0.90
2018-11-27T01:20:02.846Z,0.90
2018-11-27T01:22:30.382Z,0.90
2018-11-27T01:24:57.908Z,0.90
2018-11-27T01:27:25.473Z,0.90
2018-11-27T01:29:53.068Z,0.90
2018-11-27T01:32:20.684Z,0.90
2018-11-27T01:34:48.414Z,0.80
2018-11-27T01:37:15.915Z,0.90
2018-11-27T01:39:43.583Z,0.90
2018-11-27T01:42:12.080Z,1.00
2018-11-27T01:44:39.703Z,1.00
2018-11-27T01:47:07.201Z,0.80
2018-11-27T01:49:34.918Z,0.80
2018-11-27T01:52:02.418Z,0.80
2018-11-27T01:54:29.992Z,0.80
2018-11-27T01:56:57.561Z,0.80
2018-11-27T01:59:25.076Z,0.80
2018-11-27T02:01:52.641Z,0.70
2018-11-27T02:04:20.183Z,0.70
2018-11-27T02:06:47.691Z,0.70
2018-11-27T02:09:15.251Z,0.70
2018-11-27T02:11:42.783Z,0.70
2018-11-27T02:14:10.336Z,0.70
2018-11-27T02:16:37.902Z,0.60
2018-11-27T02:19:05.523Z,0.70
2018-11-27T02:21:33.044Z,0.70
2018-11-27T02:24:00.586Z,0.70
2018-11-27T02:26:28.023Z,0.70
2018-11-27T02:28:55.661Z,0.70
2018-11-27T02:31:23.168Z,0.70
2018-11-27T02:33:50.632Z,0.70
2018-11-27T02:36:18.120Z,0.70
2018-11-27T02:38:45.593Z,0.70
2018-11-27T02:41:13.105Z,0.70
2018-11-27T02:43:40.569Z,0.70
2018-11-27T02:46:08.047Z,0.80
2018-11-27T02:48:35.729Z,0.80
2018-11-27T02:51:03.214Z,0.90
2018-11-27T02:53:30.783Z,1.00
2018-11-27T02:55:58.424Z,1.00
2018-11-27T02:58:26.072Z,0.90
2018-11-27T03:00:53.639Z,0.90
2018-11-27T03:03:21.237Z,0.90
2018-11-27T03:05:48.786Z,0.90
2018-11-27T03:08:16.333Z,0.90
2018-11-27T03:10:43.850Z,0.90
2018-11-27T03:13:11.419Z,0.90
2018-11-27T03:15:38.947Z,0.90
2018-11-27T03:18:06.548Z,0.70
2018-11-27T03:20:34.037Z,0.70
2018-11-27T03:23:01.556Z,0.70
2018-11-27T03:25:29.262Z,0.60
2018-11-27T03:27:56.911Z,0.60
2018-11-27T03:30:25.506Z,0.60
2018-11-27T03:32:54.194Z,0.50
2018-11-27T03:35:22.718Z,0.40
2018-11-27T03:37:50.556Z,0.50
2018-11-27T03:40:22.411Z,0.50
2018-11-27T03:42:50.482Z,0.30
2018-11-27T03:45:18.803Z,0.40
2018-11-27T03:47:46.362Z,0.30
2018-11-27T03:50:16.024Z,0.30
2018-11-27T03:52:43.727Z,0.20
2018-11-27T03:55:11.834Z,0.20
2018-11-27T03:57:39.542Z,0.20
2018-11-27T04:00:38.145Z,0.10
2018-11-27T04:03:08.844Z,0.00
2018-11-27T04:05:36.655Z,0.00
2018-11-27T04:08:05.201Z,-0.10
2018-11-27T04:10:32.830Z,-0.20
2018-11-27T04:13:00.392Z,-0.20
2018-11-27T04:15:27.964Z,-0.20
2018-11-27T04:17:55.544Z,-0.20
2018-11-27T04:20:23.997Z,-0.10
2018-11-27T04:22:51.567Z,0.00
2018-11-27T04:25:19.143Z,0.00
2018-11-27T04:27:47.391Z,0.00
2018-11-27T04:30:17.578Z,0.00
2018-11-27T04:32:45.164Z,0.00
2018-11-27T04:35:14.615Z,-0.10
2018-11-27T04:37:42.311Z,-0.10
2018-11-27T04:40:11.198Z,-0.10
2018-11-27T04:42:38.705Z,-0.10
2018-11-27T04:45:09.253Z,-0.20
2018-11-27T04:47:36.839Z,-0.30
2018-11-27T04:50:05.920Z,-0.20
2018-11-27T04:52:33.612Z,-0.20
2018-11-27T04:55:01.147Z,-0.20
2018-11-27T04:57:28.630Z,-0.10
2018-11-27T04:59:56.223Z,-0.10
2018-11-27T05:02:23.777Z,-0.10
2018-11-27T05:04:51.366Z,-0.10
2018-11-27T05:07:18.975Z,-0.10
2018-11-27T05:09:46.443Z,-0.10
2018-11-27T05:12:13.908Z,-0.10
2018-11-27T05:14:41.412Z,0.00
2018-11-27T05:17:08.940Z,0.00
2018-11-27T05:19:36.427Z,0.00
2018-11-27T05:22:04.031Z,0.00
2018-11-27T05:24:31.518Z,0.00
2018-11-27T05:26:59.018Z,0.00
2018-11-27T05:29:26.456Z,0.00
2018-11-27T05:31:53.917Z,-0.10
2018-11-27T05:34:21.471Z,-0.10
2018-11-27T05:36:48.949Z,-0.10
2018-11-27T05:39:16.463Z,-0.10
2018-11-27T05:41:43.990Z,-0.20
2018-11-27T05:44:11.591Z,-0.20
2018-11-27T05:46:39.269Z,-0.20
2018-11-27T05:49:06.885Z,-0.20
2018-11-27T05:51:34.348Z,-0.20
2018-11-27T05:54:01.813Z,-0.20
2018-11-27T05:56:29.360Z,-0.20
2018-11-27T05:58:56.939Z,-0.40
2018-11-27T06:01:24.632Z,-0.50
2018-11-27T06:03:52.110Z,-0.50
2018-11-27T06:06:19.700Z,-0.60
2018-11-27T06:08:48.028Z,-0.50
2018-11-27T06:11:15.611Z,-0.50
2018-11-27T06:13:44.009Z,-0.50
2018-11-27T06:16:11.527Z,-0.60
2018-11-27T06:18:39.042Z,-0.70
2018-11-27T06:21:07.855Z,-0.60
2018-11-27T06:23:35.579Z,-0.60
2018-11-27T06:26:03.383Z,-0.50
2018-11-27T06:28:31.212Z,-0.50
2018-11-27T06:30:58.957Z,-0.60
2018-11-27T06:33:26.490Z,-0.60
2018-11-27T06:35:54.205Z,-0.50
2018-11-27T06:38:21.670Z,-0.60
2018-11-27T06:40:49.258Z,-0.60
2018-11-27T06:43:16.880Z,-0.60
2018-11-27T06:45:44.564Z,-0.60
2018-11-27T06:48:12.164Z,-0.60
2018-11-27T06:50:39.900Z,-0.60
2018-11-27T06:53:07.769Z,-0.50
2018-11-27T06:55:35.535Z,-0.50
2018-11-27T06:58:03.657Z,-0.60
2018-11-27T07:00:31.258Z,-0.50
2018-11-27T07:02:59.266Z,-0.70
2018-11-27T07:05:26.912Z,-0.70
2018-11-27T07:07:54.445Z,-0.70
2018-11-27T07:10:30.088Z,-0.70
2018-11-27T07:13:03.365Z,-0.80
2018-11-27T07:15:31.177Z,-0.70
2018-11-27T07:17:58.708Z,-0.70
2018-11-27T07:20:26.265Z,-0.70
2018-11-27T07:22:54.162Z,-0.70
2018-11-27T07:25:21.721Z,-0.70
2018-11-27T07:27:49.826Z,-0.70
2018-11-27T07:30:18.531Z,-0.60
2018-11-27T07:32:46.142Z,-0.60
2018-11-27T07:35:14.730Z,-0.50
2018-11-27T07:37:42.357Z,-0.50
2018-11-27T07:40:12.231Z,-0.50
2018-11-27T07:42:39.846Z,-0.40
2018-11-27T07:46:11.879Z,-0.40
2018-11-27T07:48:39.548Z,-0.30
2018-11-27T07:51:07.921Z,-0.20
2018-11-27T07:53:35.430Z,-0.20
2018-11-27T07:56:03.297Z,-0.20
2018-11-27T07:58:30.796Z,-0.30
2018-11-27T08:00:58.396Z,-0.30
2018-11-27T08:03:26.060Z,-0.20
2018-11-27T08:05:53.615Z,-0.10
2018-11-27T08:08:21.157Z,0.00
2018-11-27T08:10:50.046Z,0.10
2018-11-27T08:13:17.551Z,0.10
2018-11-27T08:15:45.085Z,0.20
2018-11-27T08:18:12.706Z,0.20
2018-11-27T08:20:40.312Z,0.00
2018-11-27T08:23:09.052Z,-0.10
2018-11-27T08:25:36.662Z,-0.10
2018-11-27T08:28:05.607Z,0.00
2018-11-27T08:30:33.259Z,0.20
2018-11-27T08:33:00.868Z,0.20
2018-11-27T08:35:29.271Z,0.30
2018-11-27T08:37:57.793Z,0.30
2018-11-27T08:40:26.503Z,0.30
2018-11-27T08:42:54.268Z,0.30
2018-11-27T08:45:22.790Z,0.40
2018-11-27T08:47:51.117Z,0.50
2018-11-27T08:50:20.800Z,0.40
2018-11-27T08:52:50.045Z,0.60
2018-11-27T08:55:19.331Z,0.60
2018-11-27T08:57:47.289Z,0.60
2018-11-27T09:00:16.948Z,0.60
2018-11-27T09:02:45.536Z,0.60
2018-11-27T09:05:12.783Z,0.60
2018-11-27T09:07:41.105Z,0.70
2018-11-27T09:10:15.475Z,0.70
2018-11-27T09:12:43.160Z,0.70
2018-11-27T09:15:13.790Z,0.70
2018-11-27T09:17:43.758Z,0.70
2018-11-27T09:20:11.898Z,0.80
2018-11-27T09:22:39.386Z,0.80
2018-11-27T09:25:11.320Z,0.80
2018-11-27T09:27:38.942Z,0.90
2018-11-27T09:30:14.887Z,1.00
2018-11-27T09:32:42.716Z,1.10
2018-11-27T09:35:10.629Z,1.20
2018-11-27T09:37:38.485Z,1.30
2018-11-27T09:40:13.632Z,1.20
2018-11-27T09:42:41.254Z,1.20
2018-11-27T09:45:12.063Z,1.30
2018-11-27T09:47:39.972Z,1.30
2018-11-27T09:50:10.215Z,1.30
2018-11-27T09:52:37.882Z,1.40
2018-11-27T09:55:10.973Z,1.40
2018-11-27T09:57:38.460Z,1.50
2018-11-27T10:00:14.895Z,1.50
2018-11-27T10:02:42.379Z,1.60
2018-11-27T10:05:10.676Z,1.60
2018-11-27T10:07:38.394Z,1.60
2018-11-27T10:10:07.989Z,1.60
2018-11-27T10:12:35.586Z,1.70
2018-11-27T10:15:03.837Z,1.70
2018-11-27T10:17:31.382Z,1.80
2018-11-27T10:19:59.500Z,1.80
2018-11-27T10:22:27.477Z,1.80
2018-11-27T10:24:54.935Z,1.70
2018-11-27T10:27:22.404Z,1.80
2018-11-27T10:29:50.061Z,1.80
2018-11-27T10:32:17.555Z,1.90
2018-11-27T10:34:45.288Z,2.00
2018-11-27T10:37:12.765Z,2.00
2018-11-27T10:39:40.872Z,2.00
2018-11-27T10:42:08.475Z,2.10
2018-11-27T10:44:35.924Z,2.20
2018-11-27T10:47:03.694Z,2.30
2018-11-27T10:49:31.306Z,2.40
2018-11-27T10:51:58.781Z,2.40
2018-11-27T10:54:26.456Z,2.30
2018-11-27T10:56:53.968Z,2.50
2018-11-27T10:59:21.725Z,2.60
2018-11-27T11:01:52.263Z,2.60
2018-11-27T11:04:19.870Z,2.60
2018-11-27T11:06:47.439Z,2.70
2018-11-27T11:09:15.068Z,2.70
2018-11-27T11:11:42.626Z,2.70
2018-11-27T11:14:10.107Z,2.70
2018-11-27T11:16:37.948Z,2.60
2018-11-27T11:19:06.802Z,2.70
2018-11-27T11:21:34.366Z,2.80
2018-11-27T11:24:01.855Z,2.80
2018-11-27T11:26:29.326Z,2.70
2018-11-27T11:28:57.051Z,2.80
2018-11-27T11:31:24.591Z,2.90
2018-11-27T11:33:52.193Z,3.00
2018-11-27T11:36:19.860Z,3.20
2018-11-27T11:38:47.298Z,3.10
2018-11-27T11:41:14.854Z,3.10
2018-11-27T11:43:42.323Z,3.20
2018-11-27T11:46:09.739Z,3.20
2018-11-27T11:48:37.930Z,3.20
2018-11-27T11:51:05.979Z,3.20
2018-11-27T11:53:33.554Z,3.10
2018-11-27T11:56:01.055Z,3.10
2018-11-27T11:58:28.554Z,3.10
2018-11-27T12:00:57.040Z,3.20
2018-11-27T12:03:24.546Z,3.10
2018-11-27T12:05:52.258Z,3.20
2018-11-27T12:08:22.909Z,3.30
2018-11-27T12:10:50.524Z,3.40
2018-11-27T12:13:17.996Z,3.50
2018-11-27T12:15:45.478Z,3.60
2018-11-27T12:18:13.170Z,3.70
2018-11-27T12:20:40.820Z,3.90
2018-11-27T12:23:09.909Z,4.00
2018-11-27T12:25:38.047Z,4.20
2018-11-27T12:28:08.060Z,4.40
2018-11-27T12:30:35.624Z,4.60
2018-11-27T12:33:03.158Z,4.90
2018-11-27T12:35:30.652Z,4.90
2018-11-27T12:37:58.143Z,4.90
2018-11-27T12:40:27.050Z,4.60
2018-11-27T12:42:55.130Z,4.60
2018-11-27T12:45:32.316Z,4.60
2018-11-27T12:48:01.567Z,4.70
2018-11-27T12:50:38.710Z,5.00
2018-11-27T12:53:07.741Z,5.10
2018-11-27T12:55:36.124Z,5.00
2018-11-27T12:58:03.790Z,4.90
2018-11-27T13:00:31.254Z,4.80
2018-11-27T13:02:58.773Z,4.70
2018-11-27T13:05:27.572Z,4.60
2018-11-27T13:07:57.938Z,4.60
2018-11-27T13:10:25.385Z,4.70
2018-11-27T13:12:53.635Z,4.80
2018-11-27T13:15:21.332Z,4.90
2018-11-27T13:17:50.107Z,4.80
2018-11-27T13:20:18.463Z,4.70
2018-11-27T13:22:46.338Z,4.50
2018-11-27T13:25:15.881Z,4.50
2018-11-27T13:27:43.546Z,4.50
2018-11-27T13:30:14.567Z,4.40
2018-11-27T13:32:42.322Z,4.60
2018-11-27T13:35:11.282Z,4.70
2018-11-27T13:37:39.032Z,4.70
2018-11-27T13:40:08.199Z,4.90
2018-11-27T13:42:35.739Z,5.00
2018-11-27T13:45:03.310Z,5.10
2018-11-27T13:47:30.826Z,5.10
2018-11-27T13:49:58.341Z,5.10
2018-11-27T13:52:25.776Z,5.10
2018-11-27T13:54:53.213Z,5.10
2018-11-27T13:57:20.762Z,4.90
2018-11-27T13:59:48.331Z,4.80
2018-11-27T14:02:15.984Z,4.40
2018-11-27T14:04:43.433Z,4.20
2018-11-27T14:07:10.940Z,4.00
2018-11-27T14:09:40.124Z,3.80
2018-11-27T14:12:07.876Z,3.80
2018-11-27T14:14:35.384Z,3.70
2018-11-27T14:17:03.032Z,3.60
2018-11-27T14:19:30.474Z,3.40
2018-11-27T14:21:58.123Z,3.30
2018-11-27T14:24:27.942Z,3.20
2018-11-27T14:26:55.422Z,3.20
2018-11-27T14:29:23.082Z,3.10
2018-11-27T14:31:50.578Z,2.90
2018-11-27T14:34:18.078Z,2.80
2018-11-27T14:36:45.587Z,2.70
2018-11-27T14:39:13.019Z,2.60
2018-11-27T14:41:40.444Z,2.50
2018-11-27T14:44:07.984Z,2.50
2018-11-27T14:46:35.410Z,2.40
2018-11-27T14:49:02.925Z,2.30
2018-11-27T14:51:30.423Z,2.20
2018-11-27T14:53:57.879Z,2.20
2018-11-27T14:56:25.343Z,2.10
2018-11-27T14:58:52.912Z,2.00
2018-11-27T15:01:20.350Z,2.00
2018-11-27T15:03:47.919Z,1.90
2018-11-27T15:06:15.403Z,1.70
2018-11-27T15:08:42.938Z,1.70
2018-11-27T15:11:12.741Z,1.60
2018-11-27T15:13:37.923Z,1.60
2018-11-27T15:16:05.492Z,1.50
2018-11-27T15:18:32.897Z,1.40
2018-11-27T15:21:00.353Z,1.30
2018-11-27T15:23:27.760Z,1.30
2018-11-27T15:25:55.300Z,1.20
2018-11-27T15:28:22.742Z,1.10
2018-11-27T15:30:50.329Z,1.00
2018-11-27T15:33:18.792Z,1.00
2018-11-27T15:35:45.326Z,1.00
2018-11-27T15:38:12.802Z,0.90
2018-11-27T15:40:40.405Z,0.90
2018-11-27T15:43:08.066Z,0.90
2018-11-27T15:45:36.260Z,0.80
2018-11-27T15:48:05.852Z,0.80
2018-11-27T15:50:33.328Z,0.80
2018-11-27T15:53:00.924Z,0.70
2018-11-27T15:57:55.564Z,0.70
2018-11-27T16:00:22.958Z,0.60
2018-11-27T16:02:50.651Z,0.60
2018-11-27T16:05:18.180Z,0.50
2018-11-27T16:07:45.740Z,0.50
2018-11-27T16:10:14.308Z,0.50
2018-11-27T16:12:41.912Z,0.40
2018-11-27T16:15:15.683Z,0.40
2018-11-27T16:17:43.483Z,0.40
2018-11-27T16:20:19.575Z,0.40
2018-11-27T16:22:48.250Z,0.40
2018-11-27T16:25:17.180Z,0.40
2018-11-27T16:27:44.780Z,0.30
2018-11-27T16:30:18.063Z,0.30
2018-11-27T16:32:45.614Z,0.30
2018-11-27T16:35:13.673Z,0.30
2018-11-27T16:37:41.956Z,0.20
2018-11-27T16:40:11.145Z,0.20
2018-11-27T16:42:38.723Z,0.20
2018-11-27T16:45:10.208Z,0.20
2018-11-27T16:47:37.759Z,0.20
2018-11-27T16:50:06.088Z,0.20
2018-11-27T16:52:33.626Z,0.20
2018-11-27T16:55:01.107Z,0.20
2018-11-27T16:57:28.709Z,0.10
2018-11-27T16:59:56.222Z,0.10
2018-11-27T17:02:23.764Z,0.10
2018-11-27T17:04:51.320Z,0.10
2018-11-27T17:07:18.990Z,0.10
2018-11-27T17:09:46.604Z,0.10
2018-11-27T17:12:14.879Z,0.10
2018-11-27T17:14:42.375Z,0.10
2018-11-27T17:17:09.900Z,0.00
2018-11-27T17:19:38.076Z,0.00
2018-11-27T17:22:07.118Z,0.00
2018-11-27T17:24:34.472Z,0.00
2018-11-27T17:27:02.669Z,0.00
2018-11-27T17:29:30.152Z,0.00
2018-11-27T17:31:57.620Z,-0.10
2018-11-27T17:34:25.216Z,-0.10
2018-11-27T17:36:52.716Z,-0.10
2018-11-27T17:39:20.194Z,-0.10
2018-11-27T17:41:48.463Z,-0.10
2018-11-27T17:44:16.309Z,-0.20
2018-11-27T17:46:43.936Z,-0.20
2018-11-27T17:49:11.561Z,-0.20
2018-11-27T17:51:39.124Z,-0.20
2018-11-27T17:54:07.243Z,-0.20
2018-11-27T17:56:34.721Z,-0.20
2018-11-27T17:59:02.199Z,-0.20
2018-11-27T18:01:29.969Z,-0.30
2018-11-27T18:03:57.622Z,-0.30
2018-11-27T18:06:25.222Z,-0.30
2018-11-27T18:08:53.286Z,-0.30
2018-11-27T18:11:21.016Z,-0.40
2018-11-27T18:13:48.533Z,-0.40
2018-11-27T18:16:16.137Z,-0.40
2018-11-27T18:18:43.706Z,-0.40
2018-11-27T18:21:11.253Z,-0.50
2018-11-27T18:23:38.890Z,-0.40
2018-11-27T18:26:06.451Z,-0.50
2018-11-27T18:28:34.045Z,-0.50
2018-11-27T18:31:01.781Z,-0.50
2018-11-27T18:33:32.408Z,-0.50
2018-11-27T18:36:00.537Z,-0.60
2018-11-27T18:38:29.311Z,-0.50
2018-11-27T18:40:58.582Z,-0.60
2018-11-27T18:43:27.981Z,-0.60
2018-11-27T18:45:56.957Z,-0.50
2018-11-27T18:48:25.605Z,-0.50
2018-11-27T18:50:54.529Z,-0.50
2018-11-27T18:53:22.599Z,-0.50
2018-11-27T18:55:50.115Z,-0.60
2018-11-27T18:58:19.551Z,-0.60
2018-11-27T19:00:47.888Z,-0.60
2018-11-27T19:03:16.612Z,-0.60
2018-11-27T19:05:45.430Z,-0.70
2018-11-27T19:08:13.139Z,-0.60
2018-11-27T19:10:40.758Z,-0.60
2018-11-27T19:13:08.951Z,-0.60
2018-11-27T19:15:39.695Z,-0.70
2018-11-27T19:18:14.416Z,-0.70
2018-11-27T19:20:41.921Z,-0.70
2018-11-27T19:23:09.602Z,-0.70
2018-11-27T19:25:37.173Z,-0.80
2018-11-27T19:28:05.057Z,-0.80
2018-11-27T19:30:32.784Z,-0.80
2018-11-27T19:33:00.933Z,-0.80
2018-11-27T19:35:28.661Z,-0.80
2018-11-27T19:37:56.422Z,-0.80
2018-11-27T19:40:24.105Z,-0.80
2018-11-27T19:42:51.660Z,-0.80
2018-11-27T19:45:22.690Z,-0.90
2018-11-27T19:47:50.800Z,-0.90
2018-11-27T19:50:19.373Z,-1.00
2018-11-27T19:52:48.713Z,-1.00
2018-11-27T19:55:17.081Z,-1.00
2018-11-27T19:57:44.881Z,-1.00
2018-11-27T20:00:22.460Z,-1.00
2018-11-27T20:02:51.003Z,-1.10
2018-11-27T20:05:25.479Z,-1.10
2018-11-27T20:07:53.048Z,-1.10
2018-11-27T20:10:20.855Z,-1.20
2018-11-27T20:12:49.577Z,-1.20
2018-11-27T20:15:19.593Z,-1.30
2018-11-27T20:17:47.958Z,-1.40
2018-11-27T20:20:16.559Z,-1.40
2018-11-27T20:22:44.292Z,-1.40
2018-11-27T20:25:13.393Z,-1.40
2018-11-27T20:27:41.000Z,-1.40
2018-11-27T20:30:12.504Z,-1.40
2018-11-27T20:32:40.790Z,-1.40
2018-11-27T20:35:10.336Z,-1.50
2018-11-27T20:37:37.919Z,-1.50
2018-11-27T20:40:09.337Z,-1.50
2018-11-27T20:42:36.901Z,-1.50
2018-11-27T20:45:06.505Z,-1.60
2018-11-27T20:47:34.127Z,-1.60
2018-11-27T20:50:01.845Z,-1.60
2018-11-27T20:52:29.401Z,-1.60
2018-11-27T20:54:56.918Z,-1.60
2018-11-27T20:57:24.468Z,-1.60
2018-11-27T20:59:52.898Z,-1.60
2018-11-27T21:02:20.425Z,-1.60
2018-11-27T21:04:48.004Z,-1.60
2018-11-27T21:07:16.698Z,-1.60
2018-11-27T21:09:44.354Z,-1.60
2018-11-27T21:12:11.993Z,-1.60
2018-11-27T21:14:39.675Z,-1.70
2018-11-27T21:17:07.214Z,-1.70
2018-11-27T21:19:34.776Z,-1.80
2018-11-27T21:22:02.763Z,-1.80
2018-11-27T21:24:30.257Z,-1.80
2018-11-27T21:26:57.985Z,-1.80
2018-11-27T21:29:25.665Z,-1.80
2018-11-27T21:31:53.187Z,-1.80
2018-11-27T21:34:20.706Z,-1.80
2018-11-27T21:36:48.325Z,-1.80
2018-11-27T21:39:16.096Z,-1.80
2018-11-27T21:41:45.006Z,-1.80
2018-11-27T21:44:12.544Z,-1.80
2018-11-27T21:46:40.141Z,-1.90
2018-11-27T21:49:07.688Z,-1.90
2018-11-27T21:51:35.193Z,-1.90
2018-11-27T21:54:03.559Z,-1.90
2018-11-27T21:56:31.248Z,-1.90
2018-11-27T21:58:59.943Z,-2.00
2018-11-27T22:01:27.503Z,-2.00
2018-11-27T22:03:56.151Z,-2.00
2018-11-27T22:06:23.834Z,-2.00
2018-11-27T22:08:51.898Z,-2.00
2018-11-27T22:11:19.598Z,-2.00
2018-11-27T22:13:47.554Z,-2.00
2018-11-27T22:16:15.129Z,-2.10
2018-11-27T22:18:42.892Z,-2.10
2018-11-27T22:21:10.435Z,-2.00
2018-11-27T22:23:38.189Z,-2.00
2018-11-27T22:26:05.759Z,-2.00
2018-11-27T22:28:33.377Z,-2.00
2018-11-27T22:31:00.950Z,-2.10
2018-11-27T22:33:28.592Z,-2.10
2018-11-27T22:35:56.612Z,-2.20
2018-11-27T22:38:24.137Z,-2.20
2018-11-27T22:40:53.574Z,-2.20
2018-11-27T22:43:21.128Z,-2.20
2018-11-27T22:45:48.795Z,-2.30
2018-11-27T22:48:16.406Z,-2.30
2018-11-27T22:50:44.163Z,-2.30
2018-11-27T22:53:11.931Z,-2.30
2018-11-27T22:55:39.861Z,-2.30
2018-11-27T22:58:07.825Z,-2.30
2018-11-27T23:00:41.323Z,-2.30
2018-11-27T23:03:08.900Z,-2.40
2018-11-27T23:05:36.479Z,-2.40
2018-11-27T23:08:04.510Z,-2.40
2018-11-27T23:10:34.890Z,-2.30
2018-11-27T23:13:03.056Z,-2.40
2018-11-27T23:15:30.769Z,-2.40
2018-11-27T23:17:58.395Z,-2.30
2018-11-27T23:20:26.167Z,-2.30
2018-11-27T23:22:54.025Z,-2.30
2018-11-27T23:25:21.707Z,-2.30
2018-11-27T23:27:50.260Z,-2.30
2018-11-27T23:30:19.798Z,-2.30
2018-11-27T23:32:48.097Z,-2.30
2018-11-27T23:35:16.471Z,-2.20
2018-11-27T23:37:44.060Z,-2.30
2018-11-27T23:40:12.951Z,-2.30
2018-11-27T23:42:42.024Z,-2.30
2018-11-27T23:45:12.643Z,-2.30
2018-11-27T23:47:40.891Z,-2.30
2018-11-27T23:50:10.561Z,-2.30
2018-11-27T23:52:38.284Z,-2.30
2018-11-27T23:55:07.874Z,-2.40
2018-11-27T23:57:35.870Z,-2.30
